Time;durP1;ratioP1;P1;durP2;ratioP2;P2;SDS_P1;SDS_P2;PMS_P1;PMS_P2;Temp;Humidity;BMP_temperature;BMP_pressure;BME280_temperature;BME280_humidity;BME280_pressure;Samples;Min_cycle;Max_cycle;Signal;HPM_P1;HPM_P2
2021/01/19 00:01:05;;;;;;;56.88;26.23;;;;;;;-16.03;63.90;100376.67;1777133;81;21302;-81
2021/01/19 00:04:11;;;;;;;64.12;24.98;;;;;;;-16.12;64.25;100372.79;1775997;81;21286;-81
2021/01/19 00:07:16;;;;;;;53.60;26.02;;;;;;;-16.10;64.80;100388.05;1776442;80;21868;-81
2021/01/19 00:10:22;;;;;;;61.13;26.48;;;;;;;-16.05;64.97;100385.83;1771785;81;21319;-81
2021/01/19 00:13:27;;;;;;;93.45;34.40;;;;;;;-15.97;64.82;100389.72;1771212;81;21299;-82
2021/01/19 00:16:33;;;;;;;99.45;37.42;;;;;;;-15.94;64.66;100387.09;1771827;81;21228;-81
2021/01/19 00:19:39;;;;;;;97.95;31.73;;;;;;;-15.92;64.48;100392.31;1772063;81;21802;-81
2021/01/19 00:22:44;;;;;;;59.33;26.20;;;;;;;-15.95;64.54;100382.70;1771706;81;21299;-81
2021/01/19 00:25:51;;;;;;;54.98;25.30;;;;;;;-16.02;64.18;100384.51;1772196;81;21276;-81
2021/01/19 00:28:56;;;;;;;73.28;27.20;;;;;;;-16.14;64.03;100379.77;1772070;81;21559;-81
2021/01/19 00:32:01;;;;;;;59.27;26.00;;;;;;;-16.21;64.15;100372.84;1771718;81;21296;-81
2021/01/19 00:35:07;;;;;;;54.93;25.37;;;;;;;-16.22;64.15;100372.42;1772160;81;21268;-81
2021/01/19 00:38:12;;;;;;;88.17;31.70;;;;;;;-16.26;64.21;100369.80;1772088;81;21335;-81
2021/01/19 00:41:17;;;;;;;124.53;40.50;;;;;;;-16.28;64.07;100367.61;1771992;81;21269;-81
2021/01/19 00:44:23;;;;;;;107.75;37.30;;;;;;;-16.35;63.96;100371.59;1771971;81;21300;-81
2021/01/19 00:47:28;;;;;;;80.83;31.68;;;;;;;-16.42;63.87;100361.58;1772104;81;21142;-81
2021/01/19 00:50:36;;;;;;;88.15;31.37;;;;;;;-16.46;64.00;100351.12;1772098;81;21775;-81
2021/01/19 00:53:42;;;;;;;82.40;32.10;;;;;;;-16.49;64.45;100345.48;1772097;81;21854;-81
2021/01/19 00:56:49;;;;;;;71.70;30.23;;;;;;;-16.40;65.02;100355.91;1772079;81;21822;-81
2021/01/19 00:59:57;;;;;;;67.67;29.95;;;;;;;-16.27;65.48;100347.11;1760422;81;21751;-81
2021/01/19 01:03:02;;;;;;;68.70;29.98;;;;;;;-16.08;65.91;100345.25;1771328;81;21197;-81
2021/01/19 01:06:10;;;;;;;77.67;29.50;;;;;;;-15.83;66.28;100340.70;1772246;81;21256;-81
2021/01/19 01:09:15;;;;;;;75.85;30.77;;;;;;;-15.63;66.23;100332.64;1771265;81;21165;-81
2021/01/19 01:12:20;;;;;;;59.80;28.38;;;;;;;-15.52;66.16;100332.57;1772072;81;21307;-81
2021/01/19 01:15:33;;;;;;;61.98;29.02;;;;;;;-15.40;66.18;100335.51;1772098;81;21795;-81
2021/01/19 01:18:37;;;;;;;69.05;30.15;;;;;;;-15.34;66.20;100348.11;1772031;81;21284;-81
2021/01/19 01:21:44;;;;;;;77.82;33.10;;;;;;;-15.23;66.37;100352.84;1772089;81;21170;-81
2021/01/19 01:24:50;;;;;;;78.83;32.35;;;;;;;-15.10;66.26;100369.75;1772008;81;21260;-81
2021/01/19 01:27:55;;;;;;;74.67;29.87;;;;;;;-15.01;65.90;100370.98;1772072;81;21272;-81
2021/01/19 01:31:00;;;;;;;66.25;29.57;;;;;;;-15.00;65.39;100375.37;1772130;81;21197;-81
2021/01/19 01:34:05;;;;;;;69.17;31.33;;;;;;;-15.01;65.08;100384.97;1771770;81;21292;-81
2021/01/19 01:37:11;;;;;;;87.10;35.13;;;;;;;-14.96;64.83;100379.67;1772118;81;21157;-81
2021/01/19 01:40:17;;;;;;;86.30;33.20;;;;;;;-14.90;64.87;100387.95;1771998;81;21292;-81
2021/01/19 01:43:22;;;;;;;79.90;33.10;;;;;;;-14.78;64.89;100393.92;1771382;81;21232;-81
2021/01/19 01:46:28;;;;;;;81.60;33.90;;;;;;;-14.67;64.86;100395.59;1772127;81;21778;-81
2021/01/19 01:49:34;;;;;;;76.25;33.60;;;;;;;-14.73;64.66;100392.56;1772139;81;21707;-82
2021/01/19 01:52:40;;;;;;;78.28;32.65;;;;;;;-14.79;64.92;100388.25;1771719;81;21318;-81
2021/01/19 01:55:45;;;;;;;61.58;26.97;;;;;;;-14.82;64.63;100392.21;1772171;81;21754;-81
2021/01/19 01:58:50;;;;;;;75.65;30.85;;;;;;;-15.00;63.89;100393.30;1772056;81;21292;-81
2021/01/19 02:01:55;;;;;;;75.40;32.00;;;;;;;-15.23;63.81;100396.13;1772059;81;21162;-81
2021/01/19 02:05:00;;;;;;;70.42;32.35;;;;;;;-15.38;64.18;100397.58;1772158;81;21739;-81
2021/01/19 02:08:33;;;;;;;71.87;31.75;;;;;;;-15.38;64.49;100389.71;1772162;81;21842;-81
2021/01/19 02:12:01;;;;;;;77.67;33.75;;;;;;;-15.35;64.72;100391.42;1746782;82;21152;-81
2021/01/19 02:15:10;;;;;;;82.15;34.25;;;;;;;-15.30;65.04;100386.55;1746955;82;21825;-81
2021/01/19 02:18:57;;;;;;;83.62;35.08;;;;;;;-15.18;65.17;100389.98;1747097;82;21294;-81
2021/01/19 02:22:30;;;;;;;97.45;38.15;;;;;;;-15.13;64.95;100384.23;1746940;82;21380;-81
2021/01/19 02:25:58;;;;;;;79.55;35.23;;;;;;;-15.14;65.03;100378.57;1747079;82;21267;-81
2021/01/19 02:29:39;;;;;;;88.55;36.33;;;;;;;-15.14;65.14;100372.02;1746975;82;21190;-81
2021/01/19 02:33:07;;;;;;;92.10;39.73;;;;;;;-15.04;65.45;100367.09;1746878;82;21215;-81
2021/01/19 02:36:41;;;;;;;90.62;38.10;;;;;;;-14.91;65.49;100364.77;1747034;82;21262;-81
2021/01/19 02:40:17;;;;;;;89.87;37.48;;;;;;;-14.81;65.42;100377.36;1746861;82;21224;-81
2021/01/19 02:43:26;;;;;;;84.85;36.45;;;;;;;-14.77;65.41;100375.09;1746789;82;21211;-81
2021/01/19 02:46:33;;;;;;;92.22;37.53;;;;;;;-14.71;65.30;100371.11;1746858;82;21314;-82
2021/01/19 02:49:39;;;;;;;86.05;35.45;;;;;;;-14.74;65.13;100369.82;1746800;82;21191;-81
2021/01/19 02:52:46;;;;;;;92.00;38.23;;;;;;;-14.73;65.15;100369.80;1746875;82;21216;-81
2021/01/19 02:55:51;;;;;;;96.92;38.83;;;;;;;-14.71;65.12;100371.11;1747246;82;21833;-81
2021/01/19 02:59:07;;;;;;;96.28;38.70;;;;;;;-14.69;65.27;100366.70;1745695;82;21187;-81
2021/01/19 03:02:20;;;;;;;94.42;40.10;;;;;;;-14.65;65.22;100366.23;1745335;82;21275;-81
2021/01/19 03:05:25;;;;;;;91.82;37.65;;;;;;;-14.64;65.10;100375.84;1746732;82;21278;-81
2021/01/19 03:08:30;;;;;;;92.97;38.65;;;;;;;-14.63;64.89;100387.66;1746845;82;21314;-81
2021/01/19 03:11:35;;;;;;;97.45;39.85;;;;;;;-14.56;64.85;100396.33;1771267;80;21295;-81
2021/01/19 03:14:44;;;;;;;93.92;37.10;;;;;;;-14.54;64.78;100391.91;1784681;80;22108;-81
2021/01/19 03:17:50;;;;;;;101.53;41.58;;;;;;;-14.48;64.86;100398.43;1786007;80;21216;-81
2021/01/19 03:20:55;;;;;;;93.33;38.70;;;;;;;-14.48;64.67;100408.48;1785648;80;21314;-81
2021/01/19 03:24:01;;;;;;;104.25;38.90;;;;;;;-14.46;64.69;100411.92;1785267;80;21315;-81
2021/01/19 03:27:06;;;;;;;96.53;41.23;;;;;;;-14.50;64.88;100408.93;1785769;80;21316;-81
2021/01/19 03:30:12;;;;;;;116.73;42.53;;;;;;;-14.47;65.19;100411.50;1784107;80;21271;-81
2021/01/19 03:33:17;;;;;;;94.35;39.65;;;;;;;-14.49;64.87;100414.64;1784292;80;21244;-81
2021/01/19 03:36:23;;;;;;;106.85;42.60;;;;;;;-14.56;64.92;100406.83;1785706;80;21161;-81
2021/01/19 03:39:28;;;;;;;100.22;41.13;;;;;;;-14.64;64.82;100406.91;1784171;80;21209;-81
2021/01/19 03:42:35;;;;;;;96.72;40.20;;;;;;;-14.72;64.96;100412.27;1785624;80;21307;-81
2021/01/19 03:45:44;;;;;;;98.12;38.25;;;;;;;-14.73;65.21;100414.88;1784541;80;21216;-81
2021/01/19 03:48:49;;;;;;;93.52;40.73;;;;;;;-14.70;65.36;100410.92;1785905;80;21192;-81
2021/01/19 03:51:59;;;;;;;84.45;39.55;;;;;;;-14.64;65.65;100415.23;1786057;80;21718;-81
2021/01/19 03:55:04;;;;;;;102.87;41.13;;;;;;;-14.61;65.77;100417.39;1784694;80;21295;-81
2021/01/19 03:58:10;;;;;;;103.80;42.50;;;;;;;-14.64;65.87;100416.09;1785156;80;21291;-81
2021/01/19 04:01:15;;;;;;;107.05;44.03;;;;;;;-14.64;66.09;100416.55;1785748;80;21278;-81
2021/01/19 04:04:20;;;;;;;106.22;43.48;;;;;;;-14.58;66.16;100423.94;1784342;80;21215;-80
2021/01/19 04:07:26;;;;;;;95.57;41.55;;;;;;;-14.51;66.21;100419.02;1785786;80;21327;-81
2021/01/19 04:10:32;;;;;;;115.52;47.30;;;;;;;-14.46;66.08;100422.88;1785704;80;21153;-81
2021/01/19 04:13:37;;;;;;;106.43;44.05;;;;;;;-14.40;66.11;100425.42;1782284;80;21296;-81
2021/01/19 04:16:43;;;;;;;132.43;49.90;;;;;;;-14.31;66.09;100429.26;1784208;80;21264;-81
2021/01/19 04:19:48;;;;;;;94.17;40.03;;;;;;;-14.32;66.04;100428.84;1785627;80;21192;-81
2021/01/19 04:22:53;;;;;;;99.65;44.80;;;;;;;-14.25;65.95;100423.95;1785318;80;21153;-81
2021/01/19 04:25:59;;;;;;;101.30;44.58;;;;;;;-14.27;66.02;100424.39;1784569;80;21271;-81
2021/01/19 04:29:05;;;;;;;99.92;44.30;;;;;;;-14.22;65.95;100420.40;1784459;80;21187;-81
2021/01/19 04:32:10;;;;;;;103.15;40.73;;;;;;;-14.21;66.11;100415.14;1784292;80;21196;-81
2021/01/19 04:35:17;;;;;;;100.78;43.13;;;;;;;-14.10;66.05;100414.13;1785783;80;21197;-81
2021/01/19 04:38:22;;;;;;;99.72;41.58;;;;;;;-14.10;66.10;100420.70;1785861;80;21290;-81
2021/01/19 04:41:28;;;;;;;97.82;41.08;;;;;;;-14.02;66.12;100413.56;1785952;80;21664;-81
2021/01/19 04:44:34;;;;;;;89.60;39.60;;;;;;;-13.95;66.12;100415.23;1772939;80;21272;-81
2021/01/19 04:47:43;;;;;;;108.07;43.17;;;;;;;-13.87;66.24;100406.80;1786029;80;21826;-81
2021/01/19 04:50:49;;;;;;;97.85;42.08;;;;;;;-13.78;66.16;100404.05;1786090;80;21283;-81
2021/01/19 04:53:58;;;;;;;101.82;42.45;;;;;;;-13.75;65.68;100403.98;1785753;80;21880;-82
2021/01/19 04:57:03;;;;;;;88.52;40.08;;;;;;;-13.77;65.23;100414.12;1785715;80;21224;-81
2021/01/19 05:00:21;;;;;;;97.47;40.17;;;;;;;-13.78;65.13;100413.25;1784353;80;21149;-81
2021/01/19 05:03:29;;;;;;;83.33;35.65;;;;;;;-13.76;65.07;100402.70;1784881;80;21299;-81
2021/01/19 05:06:53;;;;;;;88.82;36.35;;;;;;;-13.66;65.15;100397.72;1770914;80;21184;-81
2021/01/19 05:10:20;;;;;;;88.33;37.70;;;;;;;-13.65;65.54;100399.45;1784109;80;21211;-81
2021/01/19 05:13:25;;;;;;;81.92;34.65;;;;;;;-13.58;66.10;100404.20;1773508;80;21687;-81
2021/01/19 05:16:38;;;;;;;57.57;26.67;;;;;;;-13.50;66.22;100412.81;1753633;82;21226;-81
2021/01/19 05:19:45;;;;;;;87.47;38.10;;;;;;;-13.52;66.25;100411.98;1754875;82;21822;-81
2021/01/19 05:22:50;;;;;;;85.42;32.10;;;;;;;-13.58;66.49;100409.45;1754653;82;21166;-81
2021/01/19 05:26:06;;;;;;;64.15;25.57;;;;;;;-13.60;66.78;100410.77;1741926;82;21712;-82
2021/01/19 05:29:12;;;;;;;77.30;30.82;;;;;;;-13.59;67.01;100421.74;1754628;82;21312;-81
2021/01/19 05:32:19;;;;;;;65.40;32.63;;;;;;;-13.53;67.13;100417.70;1754763;82;21281;-81
2021/01/19 05:35:26;;;;;;;79.32;35.28;;;;;;;-13.49;67.11;100408.00;1754819;82;21300;-81
2021/01/19 05:38:32;;;;;;;62.23;28.40;;;;;;;-13.48;67.10;100417.63;1754557;82;21281;-82
2021/01/19 05:41:40;;;;;;;67.95;29.42;;;;;;;-13.51;67.20;100426.87;1754845;82;21194;-82
2021/01/19 05:44:45;;;;;;;77.62;33.40;;;;;;;-13.55;67.42;100427.80;1754455;82;21337;-81
2021/01/19 05:47:51;;;;;;;80.67;34.25;;;;;;;-13.52;67.56;100426.45;1754837;82;21226;-81
2021/01/19 05:50:56;;;;;;;75.22;33.08;;;;;;;-13.47;67.60;100431.20;1754896;82;21215;-81
2021/01/19 05:54:03;;;;;;;70.08;29.67;;;;;;;-13.47;67.37;100433.37;1754614;82;21301;-81
2021/01/19 05:57:22;;;;;;;67.80;32.80;;;;;;;-13.52;67.42;100435.21;1753654;82;21309;-81
2021/01/19 06:00:29;;;;;;;65.50;31.27;;;;;;;-13.53;67.44;100441.83;1753130;82;21277;-82
2021/01/19 06:03:35;;;;;;;66.75;28.12;;;;;;;-13.57;67.41;100434.86;1753899;80;21388;-81
2021/01/19 06:06:40;;;;;;;62.50;27.25;;;;;;;-13.62;67.36;100445.91;1753018;82;21285;-81
2021/01/19 06:09:45;;;;;;;71.00;29.35;;;;;;;-13.74;67.25;100445.16;1752819;82;21837;-81
2021/01/19 06:12:50;;;;;;;68.55;29.40;;;;;;;-13.83;67.45;100438.75;1766337;79;21722;-81
2021/01/19 06:15:56;;;;;;;70.72;30.23;;;;;;;-13.87;67.58;100437.50;1724201;80;21330;-81
2021/01/19 06:19:02;;;;;;;72.45;31.77;;;;;;;-13.87;67.57;100440.98;1734767;80;21355;-81
2021/01/19 06:22:12;;;;;;;74.72;31.77;;;;;;;-13.88;67.58;100440.98;1748561;80;21124;-81
2021/01/19 06:25:19;;;;;;;73.22;30.25;;;;;;;-13.82;67.70;100448.37;1750621;80;21117;-81
2021/01/19 06:28:24;;;;;;;55.70;26.75;;;;;;;-13.71;67.52;100450.39;1744064;80;21299;-81
2021/01/19 06:31:31;;;;;;;66.33;29.85;;;;;;;-13.67;67.32;100449.47;1741554;80;21251;-82
2021/01/19 06:34:39;;;;;;;72.15;32.53;;;;;;;-13.64;67.22;100448.98;1746752;80;21263;-81
2021/01/19 06:37:45;;;;;;;71.02;32.73;;;;;;;-13.60;67.17;100452.00;1744388;80;21283;-81
2021/01/19 06:40:51;;;;;;;64.55;29.35;;;;;;;-13.55;67.02;100444.91;1745958;80;21280;-81
2021/01/19 06:44:00;;;;;;;61.15;25.23;;;;;;;-13.57;66.82;100449.34;1744819;80;21279;-81
2021/01/19 06:47:04;;;;;;;82.35;29.48;;;;;;;-13.49;66.96;100443.52;1745134;80;21188;-81
2021/01/19 06:50:14;;;;;;;73.47;33.58;;;;;;;-13.46;66.66;100440.83;1750686;80;21180;-81
2021/01/19 06:53:40;;;;;;;66.57;28.70;;;;;;;-13.47;66.65;100444.36;1746750;80;21312;-81
2021/01/19 06:56:47;;;;;;;57.53;25.70;;;;;;;-13.47;66.40;100449.16;1756200;80;21184;-81
2021/01/19 06:59:56;;;;;;;71.75;28.83;;;;;;;-13.55;66.33;100443.59;1689205;82;22236;-82
2021/01/19 07:03:01;;;;;;;73.20;33.95;;;;;;;-13.66;66.37;100448.56;1715653;82;21315;-81
2021/01/19 07:06:10;;;;;;;78.83;33.65;;;;;;;-13.71;66.58;100451.71;1711188;82;21240;-82
2021/01/19 07:10:03;;;;;;;70.20;30.08;;;;;;;-13.68;66.75;100449.50;1717140;82;21288;-81
2021/01/19 07:13:14;;;;;;;60.30;27.25;;;;;;;-13.64;66.96;100452.52;1704746;82;21290;-81
2021/01/19 07:16:20;;;;;;;69.00;29.82;;;;;;;-13.62;66.99;100454.66;1709418;81;21259;-81
2021/01/19 07:19:29;;;;;;;66.95;28.65;;;;;;;-13.58;66.99;100447.60;1757079;81;21257;-81
2021/01/19 07:22:59;;;;;;;72.75;29.55;;;;;;;-13.58;66.87;100446.29;1749928;81;21714;-80
2021/01/19 07:26:05;;;;;;;59.75;23.92;;;;;;;-13.63;66.85;100444.17;1749915;81;21916;-80
2021/01/19 07:29:10;;;;;;;73.95;32.48;;;;;;;-13.52;67.13;100451.45;1749627;79;21193;-80
2021/01/19 07:32:22;;;;;;;63.98;28.25;;;;;;;-13.48;66.90;100450.06;1750879;81;21642;-80
2021/01/19 07:35:33;;;;;;;57.75;23.47;;;;;;;-13.43;66.80;100457.44;1753998;79;21280;-80
2021/01/19 07:38:38;;;;;;;69.30;30.17;;;;;;;-13.41;66.73;100469.25;1750918;79;21154;-80
2021/01/19 07:41:45;;;;;;;54.63;25.08;;;;;;;-13.34;66.82;100472.69;1756247;81;21252;-80
2021/01/19 07:45:01;;;;;;;78.10;30.50;;;;;;;-13.27;66.90;100466.41;1755612;79;21825;-80
2021/01/19 07:48:15;;;;;;;58.70;26.73;;;;;;;-13.17;66.84;100463.61;1756561;79;21169;-80
2021/01/19 07:51:22;;;;;;;74.67;32.15;;;;;;;-13.00;66.62;100468.58;1750456;81;21695;-80
2021/01/19 07:54:35;;;;;;;79.35;33.45;;;;;;;-12.81;66.36;100477.05;1750989;81;21948;-80
2021/01/19 07:57:40;;;;;;;55.40;22.77;;;;;;;-12.65;65.97;100475.90;1758466;79;22122;-80
2021/01/19 08:00:46;;;;;;;76.42;31.85;;;;;;;-12.52;65.48;100479.61;1761314;79;21157;-80
2021/01/19 08:03:52;;;;;;;72.50;31.73;;;;;;;-12.41;65.16;100481.63;1748292;79;21638;-80
2021/01/19 08:06:57;;;;;;;65.47;30.60;;;;;;;-12.29;64.94;100485.78;1754567;79;22254;-81
2021/01/19 08:10:03;;;;;;;80.57;35.33;;;;;;;-12.15;64.90;100494.30;1756246;79;21260;-80
2021/01/19 08:13:09;;;;;;;65.45;29.60;;;;;;;-11.92;64.71;100488.11;1757626;79;21794;-80
2021/01/19 08:16:14;;;;;;;72.10;29.10;;;;;;;-11.71;64.08;100482.83;1766102;79;21188;-80
2021/01/19 08:19:20;;;;;;;56.53;23.07;;;;;;;-11.53;63.77;100484.63;1752989;80;21718;-80
2021/01/19 08:22:31;;;;;;;66.67;30.52;;;;;;;-11.40;63.18;100488.73;1762306;79;21197;-80
2021/01/19 08:25:37;;;;;;;64.40;29.30;;;;;;;-11.34;62.77;100489.91;1763393;79;21316;-80
2021/01/19 08:28:44;;;;;;;54.45;25.80;;;;;;;-11.31;62.66;100475.78;1761384;80;21160;-80
2021/01/19 08:31:49;;;;;;;58.28;26.42;;;;;;;-11.30;62.34;100492.91;1761040;79;21264;-81
2021/01/19 08:34:54;;;;;;;57.73;23.55;;;;;;;-11.33;62.40;100487.72;1764220;79;21145;-80
2021/01/19 08:38:02;;;;;;;52.50;23.65;;;;;;;-11.34;62.34;100486.84;1764204;79;21153;-80
2021/01/19 08:41:09;;;;;;;77.20;29.90;;;;;;;-11.34;62.36;100487.27;1767031;79;21272;-80
2021/01/19 08:44:15;;;;;;;66.62;27.90;;;;;;;-11.31;62.30;100493.81;1770255;79;21180;-81
2021/01/19 08:47:20;;;;;;;64.82;28.40;;;;;;;-11.25;62.25;100491.02;1761783;79;21897;-80
2021/01/19 08:50:28;;;;;;;58.73;25.92;;;;;;;-11.25;62.09;100491.02;1760850;79;21801;-81
2021/01/19 08:53:35;;;;;;;55.20;24.67;;;;;;;-11.21;62.00;100498.44;1761382;80;21594;-81
2021/01/19 08:56:52;;;;;;;70.65;28.85;;;;;;;-11.18;61.96;100480.75;1763431;80;21817;-80
2021/01/19 08:59:59;;;;;;;68.70;28.10;;;;;;;-11.07;61.80;100477.84;1766144;79;21461;-79
2021/01/19 09:03:06;;;;;;;80.67;31.77;;;;;;;-10.98;61.68;100479.41;1756544;80;21620;-80
2021/01/19 09:06:15;;;;;;;58.38;28.12;;;;;;;-10.82;61.63;100484.72;1759816;80;21819;-80
2021/01/19 09:09:21;;;;;;;66.72;28.42;;;;;;;-10.72;61.17;100486.25;1763057;79;21251;-80
2021/01/19 09:12:29;;;;;;;50.35;21.70;;;;;;;-10.75;60.74;100481.48;1704648;79;21310;-81
2021/01/19 09:15:34;;;;;;;60.08;27.70;;;;;;;-10.82;60.57;100479.43;1761498;80;21607;-80
2021/01/19 09:18:39;;;;;;;67.58;25.92;;;;;;;-10.88;60.92;100479.59;1754845;80;21345;-79
2021/01/19 09:21:45;;;;;;;58.85;27.82;;;;;;;-10.83;61.00;100487.81;1766103;79;21763;-79
2021/01/19 09:24:50;;;;;;;62.67;26.65;;;;;;;-10.78;60.95;100486.38;1734209;80;21347;-79
2021/01/19 09:27:55;;;;;;;67.53;27.40;;;;;;;-10.72;60.86;100492.86;1724810;80;21586;-78
2021/01/19 09:31:00;;;;;;;60.43;25.43;;;;;;;-10.69;60.70;100489.25;1731804;82;21166;-79
2021/01/19 09:34:04;;;;;;;68.20;27.65;;;;;;;-10.65;60.74;100490.91;1727580;82;21271;-78
2021/01/19 09:37:14;;;;;;;66.50;27.90;;;;;;;-10.60;60.87;100489.02;1725282;82;21365;-79
2021/01/19 09:40:20;;;;;;;47.62;20.97;;;;;;;-10.47;60.80;100491.77;1726054;80;21283;-79
2021/01/19 09:43:26;;;;;;;51.63;23.73;;;;;;;-10.40;59.83;100491.14;1710100;83;21312;-79
2021/01/19 09:46:33;;;;;;;55.83;20.95;;;;;;;-10.48;59.68;100483.89;1710301;83;21296;-79
2021/01/19 09:49:38;;;;;;;51.05;21.35;;;;;;;-10.52;59.94;100492.80;1708016;83;21928;-79
2021/01/19 09:52:43;;;;;;;56.88;26.30;;;;;;;-10.56;59.89;100490.69;1728006;82;21330;-79
2021/01/19 09:55:49;;;;;;;52.85;21.52;;;;;;;-10.66;60.09;100491.37;1711013;83;21311;-79
2021/01/19 09:58:54;;;;;;;60.48;26.75;;;;;;;-10.64;60.45;100489.55;1720903;82;21737;-80
2021/01/19 10:02:05;;;;;;;60.40;24.98;;;;;;;-10.70;60.54;100488.84;1718905;81;21292;-79
2021/01/19 10:05:15;;;;;;;53.15;23.25;;;;;;;-10.66;60.72;100482.13;1730498;82;21163;-79
2021/01/19 10:08:21;;;;;;;56.88;24.45;;;;;;;-10.64;60.80;100486.03;1733493;82;21538;-79
2021/01/19 10:11:42;;;;;;;64.90;26.85;;;;;;;-10.58;60.91;100490.73;1705221;82;22216;-78
2021/01/19 10:14:48;;;;;;;63.87;26.10;;;;;;;-10.46;61.26;100486.89;1732739;80;21151;-78
2021/01/19 10:17:54;;;;;;;52.75;23.22;;;;;;;-10.23;61.13;100485.38;1709012;82;21797;-78
2021/01/19 10:20:59;;;;;;;52.25;24.57;;;;;;;-10.06;60.65;100487.98;1707617;83;21363;-78
2021/01/19 10:24:06;;;;;;;59.10;24.57;;;;;;;-10.06;60.05;100486.66;1712603;82;21275;-78
2021/01/19 10:27:16;;;;;;;53.42;21.77;;;;;;;-10.07;60.18;100486.26;1761350;79;21253;-78
2021/01/19 10:30:21;;;;;;;63.98;27.17;;;;;;;-9.99;60.00;100486.48;1708687;82;21972;-79
2021/01/19 10:33:35;;;;;;;63.92;24.52;;;;;;;-10.04;59.85;100487.94;1746641;81;21291;-80
2021/01/19 10:36:41;;;;;;;60.12;27.02;;;;;;;-9.99;59.87;100478.08;1753041;79;21797;-81
2021/01/19 10:39:59;;;;;;;59.55;26.25;;;;;;;-10.01;59.63;100475.09;1752151;81;21268;-78
2021/01/19 10:43:03;;;;;;;51.10;23.65;;;;;;;-10.08;59.70;100476.55;1752254;79;21171;-78
2021/01/19 10:46:10;;;;;;;54.00;24.02;;;;;;;-10.12;59.75;100470.07;1752320;81;21138;-78
2021/01/19 10:49:19;;;;;;;50.48;23.50;;;;;;;-10.15;59.75;100471.04;1753532;81;21876;-78
2021/01/19 10:52:25;;;;;;;55.60;25.60;;;;;;;-10.18;59.71;100471.11;1753346;79;21334;-78
2021/01/19 10:55:32;;;;;;;55.12;21.80;;;;;;;-10.24;59.70;100463.39;1758636;79;21357;-78
2021/01/19 10:58:37;;;;;;;58.52;25.92;;;;;;;-10.37;59.61;100459.33;1749078;79;21118;-78
2021/01/19 11:01:41;;;;;;;56.85;25.23;;;;;;;-10.53;59.85;100458.02;1746287;81;21197;-78
2021/01/19 11:04:48;;;;;;;49.35;24.18;;;;;;;-10.62;60.36;100454.70;1751413;81;21304;-78
2021/01/19 11:07:57;;;;;;;48.98;21.65;;;;;;;-10.61;60.44;100459.08;1755268;79;21200;-78
2021/01/19 11:11:03;;;;;;;57.93;27.05;;;;;;;-10.64;60.53;100456.50;1755848;81;21300;-78
2021/01/19 11:14:08;;;;;;;45.55;19.75;;;;;;;-10.66;60.69;100452.17;1751644;81;21644;-78
2021/01/19 11:17:14;;;;;;;54.42;26.45;;;;;;;-10.63;60.88;100450.75;1755302;79;21249;-78
2021/01/19 11:20:21;;;;;;;58.85;25.00;;;;;;;-10.67;60.92;100456.60;1754884;81;21166;-77
2021/01/19 11:23:26;;;;;;;48.48;21.85;;;;;;;-10.64;60.97;100449.89;1763236;80;21283;-78
2021/01/19 11:26:32;;;;;;;51.37;21.07;;;;;;;-10.60;60.87;100455.97;1758329;80;21835;-78
2021/01/19 11:29:38;;;;;;;50.88;22.82;;;;;;;-10.62;60.80;100461.31;1722501;82;21286;-78
2021/01/19 11:32:43;;;;;;;59.60;22.95;;;;;;;-10.66;60.71;100461.43;1715330;82;21308;-78
2021/01/19 11:35:49;;;;;;;47.53;21.35;;;;;;;-10.67;60.70;100460.56;1709707;82;21169;-78
2021/01/19 11:38:54;;;;;;;49.08;18.85;;;;;;;-10.73;60.86;100454.09;1712784;82;21307;-78
2021/01/19 11:42:00;;;;;;;46.18;20.37;;;;;;;-10.69;60.98;100453.11;1721751;82;21181;-78
2021/01/19 11:45:05;;;;;;;50.55;23.32;;;;;;;-10.73;60.84;100455.88;1709123;82;21251;-78
2021/01/19 11:48:10;;;;;;;47.30;22.48;;;;;;;-10.72;61.01;100453.66;1703777;82;21141;-78
2021/01/19 11:51:16;;;;;;;53.75;24.30;;;;;;;-10.69;60.82;100450.47;1706734;83;22076;-78
2021/01/19 11:54:22;;;;;;;58.00;25.65;;;;;;;-10.84;60.79;100442.94;1705154;82;21182;-78
2021/01/19 11:57:28;;;;;;;51.33;20.00;;;;;;;-10.98;61.09;100450.34;1721092;81;21289;-78
2021/01/19 12:00:33;;;;;;;52.23;21.70;;;;;;;-11.09;61.46;100454.58;1709719;82;21273;-78
2021/01/19 12:03:39;;;;;;;53.63;22.67;;;;;;;-11.10;61.68;100455.03;1704437;83;21285;-78
2021/01/19 12:06:44;;;;;;;52.58;25.43;;;;;;;-11.10;61.67;100455.03;1717723;83;21252;-78
2021/01/19 12:09:50;;;;;;;47.38;20.35;;;;;;;-11.13;61.73;100464.34;1714322;83;21813;-78
2021/01/19 12:12:56;;;;;;;68.17;26.75;;;;;;;-11.12;61.74;100462.11;1713891;83;21364;-78
2021/01/19 12:16:02;;;;;;;49.40;19.62;;;;;;;-11.20;61.77;100464.05;1713052;81;21301;-78
2021/01/19 12:19:16;;;;;;;49.50;21.65;;;;;;;-11.16;61.94;100471.00;1711405;83;21290;-78
2021/01/19 12:22:18;;;;;;;51.98;22.65;;;;;;;-11.17;61.78;100471.91;1710612;83;21909;-78
2021/01/19 12:25:23;;;;;;;46.88;20.55;;;;;;;-11.20;61.96;100470.66;1709869;83;21932;-78
2021/01/19 12:28:29;;;;;;;57.30;23.75;;;;;;;-11.20;61.79;100469.34;1749846;81;21198;-78
2021/01/19 12:31:36;;;;;;;52.67;25.50;;;;;;;-11.19;61.70;100472.42;1750113;81;21159;-78
2021/01/19 12:34:43;;;;;;;56.42;23.30;;;;;;;-11.12;61.55;100475.77;1715842;80;21290;-78
2021/01/19 12:37:49;;;;;;;50.08;20.85;;;;;;;-11.11;61.45;100474.86;1751581;79;21490;-77
2021/01/19 12:40:56;;;;;;;45.12;21.87;;;;;;;-11.09;61.36;100476.57;1755134;81;21280;-78
2021/01/19 12:44:02;;;;;;;49.55;21.77;;;;;;;-11.15;61.25;100479.80;1749818;81;21272;-79
2021/01/19 12:47:07;;;;;;;48.73;21.25;;;;;;;-11.21;61.43;100487.41;1752535;81;21876;-77
2021/01/19 12:50:13;;;;;;;52.05;25.43;;;;;;;-11.26;61.59;100489.75;1750059;81;21304;-78
2021/01/19 12:53:18;;;;;;;47.05;19.77;;;;;;;-11.30;61.90;100492.91;1748535;81;21711;-78
2021/01/19 12:56:24;;;;;;;58.55;24.50;;;;;;;-11.33;61.91;100502.23;1755985;81;21316;-77
2021/01/19 12:59:22;;;;;;;54.45;23.38;;;;;;;-11.45;61.89;100504.69;1757743;81;21853;-77
2021/01/19 13:02:26;;;;;;;41.15;18.57;;;;;;;-11.48;62.18;100506.52;1744263;81;21197;-77
2021/01/19 13:05:31;;;;;;;61.77;26.52;;;;;;;-11.47;62.14;100512.23;1755558;81;21147;-79
2021/01/19 13:08:37;;;;;;;51.02;22.30;;;;;;;-11.53;62.16;100507.06;1754109;81;21810;-79
2021/01/19 13:11:43;;;;;;;54.42;22.65;;;;;;;-11.60;62.30;100502.38;1749027;81;21180;-78
2021/01/19 13:14:48;;;;;;;55.23;24.02;;;;;;;-11.67;62.37;100498.98;1755257;79;21292;-79
2021/01/19 13:17:53;;;;;;;66.10;27.20;;;;;;;-11.71;62.54;100506.58;1753923;81;21157;-79
2021/01/19 13:20:59;;;;;;;56.13;27.35;;;;;;;-11.71;62.63;100510.53;1756492;79;21252;-79
2021/01/19 13:24:04;;;;;;;61.42;25.40;;;;;;;-11.72;62.70;100510.09;1714778;82;21992;-79
2021/01/19 13:27:09;;;;;;;51.53;25.35;;;;;;;-11.71;62.88;100517.59;1682883;84;21849;-79
2021/01/19 13:30:14;;;;;;;50.25;23.52;;;;;;;-11.67;62.84;100509.55;1692917;84;21275;-79
2021/01/19 13:33:20;;;;;;;51.00;24.18;;;;;;;-11.70;62.82;100518.86;1693909;84;21313;-78
2021/01/19 13:36:26;;;;;;;59.70;27.05;;;;;;;-11.77;62.81;100513.73;1702910;83;21267;-79
2021/01/19 13:39:32;;;;;;;54.98;25.35;;;;;;;-11.85;62.87;100513.94;1677905;84;21334;-78
2021/01/19 13:42:37;;;;;;;63.05;26.30;;;;;;;-11.91;62.98;100518.00;1697874;83;21833;-77
2021/01/19 13:45:43;;;;;;;52.75;25.45;;;;;;;-11.99;63.06;100519.95;1699204;83;21714;-78
2021/01/19 13:48:49;;;;;;;57.80;24.55;;;;;;;-12.04;63.23;100516.08;1700367;83;21287;-78
2021/01/19 13:51:54;;;;;;;56.00;23.22;;;;;;;-12.10;63.21;100521.45;1697253;83;21169;-77
2021/01/19 13:54:59;;;;;;;60.38;22.13;;;;;;;-12.16;63.34;100521.13;1705229;83;21539;-77
2021/01/19 13:58:04;;;;;;;82.67;31.05;;;;;;;-12.30;63.53;100525.78;1698766;83;21148;-77
2021/01/19 14:01:10;;;;;;;75.40;27.98;;;;;;;-12.44;63.78;100521.20;1696482;83;21883;-78
2021/01/19 14:04:16;;;;;;;71.20;29.15;;;;;;;-12.58;64.06;100527.17;1700396;83;21750;-77